sensor_id;sensor_type;location;lat;lon;timestamp;temperature;humidity
4647;DHT22;2336;47.822;7.564;2022-12-24T04:34:22;11.70;99.90
4647;DHT22;2336;47.822;7.564;2022-12-24T04:36:48;11.70;99.90
4647;DHT22;2336;47.822;7.564;2022-12-24T04:39:15;11.70;99.90
4647;DHT22;2336;47.822;7.564;2022-12-24T04:41:42;11.60;99.90
4647;DHT22;2336;47.822;7.564;2022-12-24T04:44:09;11.60;99.90
4647;DHT22;2336;47.822;7.564;2022-12-24T04:46:36;11.70;99.90
4647;DHT22;2336;47.822;7.564;2022-12-24T04:49:04;11.70;99.90
4647;DHT22;2336;47.822;7.564;2022-12-24T04:51:32;11.70;99.90
4647;DHT22;2336;47.822;7.564;2022-12-24T04:53:59;11.70;99.90
4647;DHT22;2336;47.822;7.564;2022-12-24T04:56:28;11.70;99.90
4647;DHT22;2336;47.822;7.564;2022-12-24T04:58:55;11.70;99.90
4647;DHT22;2336;47.822;7.564;2022-12-24T05:01:23;11.70;99.90
4647;DHT22;2336;47.822;7.564;2022-12-24T05:03:51;11.70;99.90
4647;DHT22;2336;47.822;7.564;2022-12-24T05:06:19;11.70;99.90
4647;DHT22;2336;47.822;7.564;2022-12-24T05:08:48;11.70;99.90
4647;DHT22;2336;47.822;7.564;2022-12-24T05:11:15;11.70;99.90
4647;DHT22;2336;47.822;7.564;2022-12-24T05:13:42;11.70;99.90
4647;DHT22;2336;47.822;7.564;2022-12-24T05:16:11;11.70;99.90
4647;DHT22;2336;47.822;7.564;2022-12-24T05:18:39;11.70;99.90
4647;DHT22;2336;47.822;7.564;2022-12-24T05:21:07;11.70;99.90
4647;DHT22;2336;47.822;7.564;2022-12-24T05:23:36;11.70;99.90
4647;DHT22;2336;47.822;7.564;2022-12-24T05:26:26;11.80;99.90
4647;DHT22;2336;47.822;7.564;2022-12-24T05:28:55;11.80;99.90
4647;DHT22;2336;47.822;7.564;2022-12-24T05:31:23;11.70;99.90
4647;DHT22;2336;47.822;7.564;2022-12-24T05:33:50;11.70;99.90
4647;DHT22;2336;47.822;7.564;2022-12-24T05:36:19;11.70;99.90
4647;DHT22;2336;47.822;7.564;2022-12-24T05:38:46;11.70;99.90
4647;DHT22;2336;47.822;7.564;2022-12-24T05:41:13;11.70;99.90
4647;DHT22;2336;47.822;7.564;2022-12-24T05:43:41;11.70;99.90
4647;DHT22;2336;47.822;7.564;2022-12-24T05:46:09;11.60;99.90
4647;DHT22;2336;47.822;7.564;2022-12-24T05:48:36;11.60;99.90
4647;DHT22;2336;47.822;7.564;2022-12-24T05:51:04;11.60;99.90
4647;DHT22;2336;47.822;7.564;2022-12-24T05:53:31;11.60;99.90
4647;DHT22;2336;47.822;7.564;2022-12-24T05:56:02;11.60;99.90
4647;DHT22;2336;47.822;7.564;2022-12-24T15:13:37;11.60;99.90
4647;DHT22;2336;47.822;7.564;2022-12-24T15:16:07;11.60;99.90
4647;DHT22;2336;47.822;7.564;2022-12-24T15:18:36;11.60;99.90
4647;DHT22;2336;47.822;7.564;2022-12-24T15:21:06;11.70;99.90
4647;DHT22;2336;47.822;7.564;2022-12-24T15:23:35;11.60;99.90
4647;DHT22;2336;47.822;7.564;2022-12-24T15:26:07;11.60;99.90
4647;DHT22;2336;47.822;7.564;2022-12-24T15:28:37;11.60;99.90
4647;DHT22;2336;47.822;7.564;2022-12-24T15:31:07;11.60;99.90
4647;DHT22;2336;47.822;7.564;2022-12-24T15:33:34;11.50;99.90
4647;DHT22;2336;47.822;7.564;2022-12-24T15:36:02;11.50;99.90
4647;DHT22;2336;47.822;7.564;2022-12-24T15:38:31;11.50;99.90
4647;DHT22;2336;47.822;7.564;2022-12-24T15:41:01;11.50;99.90
4647;DHT22;2336;47.822;7.564;2022-12-24T15:43:29;11.50;99.90
4647;DHT22;2336;47.822;7.564;2022-12-24T15:45:59;11.40;99.90
4647;DHT22;2336;47.822;7.564;2022-12-24T15:48:27;11.40;99.90
4647;DHT22;2336;47.822;7.564;2022-12-24T15:50:56;11.40;99.90
4647;DHT22;2336;47.822;7.564;2022-12-24T15:53:26;11.40;99.90
4647;DHT22;2336;47.822;7.564;2022-12-24T15:56:07;11.40;99.90
4647;DHT22;2336;47.822;7.564;2022-12-24T15:58:35;11.40;99.90
4647;DHT22;2336;47.822;7.564;2022-12-24T16:03:57;11.40;99.90
4647;DHT22;2336;47.822;7.564;2022-12-24T16:06:25;11.40;99.90
4647;DHT22;2336;47.822;7.564;2022-12-24T16:08:53;11.40;99.90
4647;DHT22;2336;47.822;7.564;2022-12-24T16:11:23;11.40;99.90
4647;DHT22;2336;47.822;7.564;2022-12-24T16:14:01;11.30;99.90
4647;DHT22;2336;47.822;7.564;2022-12-24T16:16:33;11.30;99.90
4647;DHT22;2336;47.822;7.564;2022-12-24T16:19:01;11.30;99.90
4647;DHT22;2336;47.822;7.564;2022-12-24T16:21:31;11.30;99.90
4647;DHT22;2336;47.822;7.564;2022-12-24T16:24:03;11.30;99.90
4647;DHT22;2336;47.822;7.564;2022-12-24T16:26:31;11.30;99.90
4647;DHT22;2336;47.822;7.564;2022-12-24T16:28:58;11.30;99.90
4647;DHT22;2336;47.822;7.564;2022-12-24T16:31:28;11.30;99.90
4647;DHT22;2336;47.822;7.564;2022-12-24T16:33:58;11.30;99.90
4647;DHT22;2336;47.822;7.564;2022-12-24T16:36:26;11.30;99.90
4647;DHT22;2336;47.822;7.564;2022-12-24T16:38:53;11.20;99.90
4647;DHT22;2336;47.822;7.564;2022-12-24T16:41:37;11.20;99.90
4647;DHT22;2336;47.822;7.564;2022-12-24T16:44:18;11.10;99.90
4647;DHT22;2336;47.822;7.564;2022-12-24T16:46:44;11.10;99.90
4647;DHT22;2336;47.822;7.564;2022-12-24T16:49:15;11.10;99.90
4647;DHT22;2336;47.822;7.564;2022-12-24T16:51:42;11.00;99.90
4647;DHT22;2336;47.822;7.564;2022-12-24T16:54:10;11.00;99.90
4647;DHT22;2336;47.822;7.564;2022-12-24T16:56:37;10.90;99.90
4647;DHT22;2336;47.822;7.564;2022-12-24T16:59:04;10.90;99.90
4647;DHT22;2336;47.822;7.564;2022-12-24T17:01:31;10.90;99.90
4647;DHT22;2336;47.822;7.564;2022-12-24T17:03:58;10.90;99.90
4647;DHT22;2336;47.822;7.564;2022-12-24T17:06:26;10.80;99.90
4647;DHT22;2336;47.822;7.564;2022-12-24T17:08:53;10.80;99.90
4647;DHT22;2336;47.822;7.564;2022-12-24T17:11:21;10.80;99.90
4647;DHT22;2336;47.822;7.564;2022-12-24T17:13:49;10.80;99.90
4647;DHT22;2336;47.822;7.564;2022-12-24T17:16:15;10.80;99.90
4647;DHT22;2336;47.822;7.564;2022-12-24T17:18:42;10.80;99.90
4647;DHT22;2336;47.822;7.564;2022-12-24T17:21:09;10.80;99.90
4647;DHT22;2336;47.822;7.564;2022-12-24T17:23:40;10.80;99.90
4647;DHT22;2336;47.822;7.564;2022-12-24T17:26:07;10.80;99.90
4647;DHT22;2336;47.822;7.564;2022-12-24T17:28:35;10.80;99.90
4647;DHT22;2336;47.822;7.564;2022-12-24T17:31:05;10.80;99.90
4647;DHT22;2336;47.822;7.564;2022-12-24T17:33:32;10.80;99.90
4647;DHT22;2336;47.822;7.564;2022-12-24T17:35:59;10.80;99.90
4647;DHT22;2336;47.822;7.564;2022-12-24T17:38:27;10.80;99.90
4647;DHT22;2336;47.822;7.564;2022-12-24T17:41:00;10.80;99.90
4647;DHT22;2336;47.822;7.564;2022-12-24T17:43:27;10.80;99.90
4647;DHT22;2336;47.822;7.564;2022-12-24T17:45:54;10.80;99.90
4647;DHT22;2336;47.822;7.564;2022-12-24T17:48:21;10.70;99.90
4647;DHT22;2336;47.822;7.564;2022-12-24T17:50:48;10.70;99.90
4647;DHT22;2336;47.822;7.564;2022-12-24T17:53:14;10.70;99.90
4647;DHT22;2336;47.822;7.564;2022-12-24T17:55:42;10.70;99.90
4647;DHT22;2336;47.822;7.564;2022-12-24T17:58:10;10.70;99.90
4647;DHT22;2336;47.822;7.564;2022-12-24T18:00:39;10.70;99.90
4647;DHT22;2336;47.822;7.564;2022-12-24T18:03:08;10.60;99.90
4647;DHT22;2336;47.822;7.564;2022-12-24T18:05:37;10.60;99.90
4647;DHT22;2336;47.822;7.564;2022-12-24T18:08:05;10.60;99.90
4647;DHT22;2336;47.822;7.564;2022-12-24T18:10:31;10.60;99.90
4647;DHT22;2336;47.822;7.564;2022-12-24T18:12:58;10.50;99.90
4647;DHT22;2336;47.822;7.564;2022-12-24T18:15:26;10.50;99.90
4647;DHT22;2336;47.822;7.564;2022-12-24T18:17:54;10.40;99.90
4647;DHT22;2336;47.822;7.564;2022-12-24T18:20:21;10.40;99.90
4647;DHT22;2336;47.822;7.564;2022-12-24T18:22:48;10.40;99.90
4647;DHT22;2336;47.822;7.564;2022-12-24T18:25:15;10.30;99.90
4647;DHT22;2336;47.822;7.564;2022-12-24T18:27:42;10.30;99.90
4647;DHT22;2336;47.822;7.564;2022-12-24T18:30:09;10.30;99.90
4647;DHT22;2336;47.822;7.564;2022-12-24T18:32:38;10.30;99.90
4647;DHT22;2336;47.822;7.564;2022-12-24T18:35:05;10.30;99.90
4647;DHT22;2336;47.822;7.564;2022-12-24T18:37:32;10.30;99.90
4647;DHT22;2336;47.822;7.564;2022-12-24T18:39:59;10.30;99.90
4647;DHT22;2336;47.822;7.564;2022-12-24T18:42:27;10.30;99.90
4647;DHT22;2336;47.822;7.564;2022-12-24T18:44:53;10.30;99.90
4647;DHT22;2336;47.822;7.564;2022-12-24T18:47:20;10.30;99.90
4647;DHT22;2336;47.822;7.564;2022-12-24T18:49:48;10.30;99.90
4647;DHT22;2336;47.822;7.564;2022-12-24T18:52:15;10.30;99.90
4647;DHT22;2336;47.822;7.564;2022-12-24T18:54:42;10.30;99.90
4647;DHT22;2336;47.822;7.564;2022-12-24T18:57:09;10.30;99.90
4647;DHT22;2336;47.822;7.564;2022-12-24T18:59:36;10.30;99.90
4647;DHT22;2336;47.822;7.564;2022-12-24T19:02:03;10.30;99.90
4647;DHT22;2336;47.822;7.564;2022-12-24T19:04:30;10.30;99.90
4647;DHT22;2336;47.822;7.564;2022-12-24T19:06:58;10.30;99.90
4647;DHT22;2336;47.822;7.564;2022-12-24T19:09:25;10.30;99.90
4647;DHT22;2336;47.822;7.564;2022-12-24T19:11:52;10.30;99.90
4647;DHT22;2336;47.822;7.564;2022-12-24T19:14:19;10.30;99.90
4647;DHT22;2336;47.822;7.564;2022-12-24T19:16:46;10.30;99.90
4647;DHT22;2336;47.822;7.564;2022-12-24T19:19:13;10.30;99.90
4647;DHT22;2336;47.822;7.564;2022-12-24T19:21:39;10.30;99.90
4647;DHT22;2336;47.822;7.564;2022-12-24T19:24:08;10.30;99.90
4647;DHT22;2336;47.822;7.564;2022-12-24T19:26:35;10.30;99.90
4647;DHT22;2336;47.822;7.564;2022-12-24T19:29:02;10.30;99.90
4647;DHT22;2336;47.822;7.564;2022-12-24T19:31:28;10.30;99.90
4647;DHT22;2336;47.822;7.564;2022-12-24T19:33:56;10.40;99.90
4647;DHT22;2336;47.822;7.564;2022-12-24T19:36:25;10.30;99.90
4647;DHT22;2336;47.822;7.564;2022-12-24T19:38:52;10.30;99.90
4647;DHT22;2336;47.822;7.564;2022-12-24T19:41:22;10.30;99.90
4647;DHT22;2336;47.822;7.564;2022-12-24T19:43:50;10.30;99.90
4647;DHT22;2336;47.822;7.564;2022-12-24T19:46:19;10.40;99.90
4647;DHT22;2336;47.822;7.564;2022-12-24T19:48:48;10.40;99.90
4647;DHT22;2336;47.822;7.564;2022-12-24T19:51:16;10.30;99.90
4647;DHT22;2336;47.822;7.564;2022-12-24T19:53:43;10.30;99.90
4647;DHT22;2336;47.822;7.564;2022-12-24T19:56:10;10.40;99.90
4647;DHT22;2336;47.822;7.564;2022-12-24T19:58:40;10.40;99.90
4647;DHT22;2336;47.822;7.564;2022-12-24T20:01:10;10.30;99.90
4647;DHT22;2336;47.822;7.564;2022-12-24T20:03:37;10.30;99.90
4647;DHT22;2336;47.822;7.564;2022-12-24T20:06:04;10.30;99.90
4647;DHT22;2336;47.822;7.564;2022-12-24T20:08:31;10.30;99.90
4647;DHT22;2336;47.822;7.564;2022-12-24T20:10:58;10.30;99.90
4647;DHT22;2336;47.822;7.564;2022-12-24T20:13:28;10.30;99.90
4647;DHT22;2336;47.822;7.564;2022-12-24T20:15:56;10.30;99.90
4647;DHT22;2336;47.822;7.564;2022-12-24T20:18:23;10.30;99.90
4647;DHT22;2336;47.822;7.564;2022-12-24T20:20:50;10.30;99.90
4647;DHT22;2336;47.822;7.564;2022-12-24T20:23:17;10.30;99.90
4647;DHT22;2336;47.822;7.564;2022-12-24T20:25:43;10.30;99.90
4647;DHT22;2336;47.822;7.564;2022-12-24T20:28:10;10.20;99.90
4647;DHT22;2336;47.822;7.564;2022-12-24T20:30:37;10.20;99.90
4647;DHT22;2336;47.822;7.564;2022-12-24T20:33:06;10.20;99.90
4647;DHT22;2336;47.822;7.564;2022-12-24T20:35:33;10.10;99.90
4647;DHT22;2336;47.822;7.564;2022-12-24T20:38:00;10.10;99.90
4647;DHT22;2336;47.822;7.564;2022-12-24T20:40:27;10.10;99.90
4647;DHT22;2336;47.822;7.564;2022-12-24T20:42:54;10.10;99.90
4647;DHT22;2336;47.822;7.564;2022-12-24T20:45:21;10.00;99.90
4647;DHT22;2336;47.822;7.564;2022-12-24T20:47:47;10.00;99.90
4647;DHT22;2336;47.822;7.564;2022-12-24T20:50:16;10.00;99.90
4647;DHT22;2336;47.822;7.564;2022-12-24T20:52:43;10.00;99.90
4647;DHT22;2336;47.822;7.564;2022-12-24T20:55:10;9.90;99.90
4647;DHT22;2336;47.822;7.564;2022-12-24T20:57:37;9.90;99.90
4647;DHT22;2336;47.822;7.564;2022-12-24T21:00:04;9.80;99.90
4647;DHT22;2336;47.822;7.564;2022-12-24T21:02:31;9.80;99.90
4647;DHT22;2336;47.822;7.564;2022-12-24T21:04:58;9.70;99.90
4647;DHT22;2336;47.822;7.564;2022-12-24T21:07:26;9.70;99.90
4647;DHT22;2336;47.822;7.564;2022-12-24T21:09:53;9.70;99.90
4647;DHT22;2336;47.822;7.564;2022-12-24T21:12:19;9.70;99.90
4647;DHT22;2336;47.822;7.564;2022-12-24T21:15:12;9.70;99.90
4647;DHT22;2336;47.822;7.564;2022-12-24T21:17:39;9.60;99.90
4647;DHT22;2336;47.822;7.564;2022-12-24T21:20:07;9.60;99.90
4647;DHT22;2336;47.822;7.564;2022-12-24T21:22:35;9.60;99.90
4647;DHT22;2336;47.822;7.564;2022-12-24T21:25:02;9.70;99.90
4647;DHT22;2336;47.822;7.564;2022-12-24T21:27:29;9.70;99.90
4647;DHT22;2336;47.822;7.564;2022-12-24T21:29:56;9.70;99.90
4647;DHT22;2336;47.822;7.564;2022-12-24T21:32:23;9.70;99.90
4647;DHT22;2336;47.822;7.564;2022-12-24T21:34:50;9.60;99.90
4647;DHT22;2336;47.822;7.564;2022-12-24T21:37:17;9.70;99.90
4647;DHT22;2336;47.822;7.564;2022-12-24T21:39:46;9.70;99.90
4647;DHT22;2336;47.822;7.564;2022-12-24T21:42:13;9.70;99.90
4647;DHT22;2336;47.822;7.564;2022-12-24T21:44:40;9.70;99.90
4647;DHT22;2336;47.822;7.564;2022-12-24T21:47:07;9.70;99.90
4647;DHT22;2336;47.822;7.564;2022-12-24T21:49:35;9.70;99.90
4647;DHT22;2336;47.822;7.564;2022-12-24T21:52:20;9.70;99.90
4647;DHT22;2336;47.822;7.564;2022-12-24T21:54:48;9.70;99.90
4647;DHT22;2336;47.822;7.564;2022-12-24T21:57:14;9.70;99.90
4647;DHT22;2336;47.822;7.564;2022-12-24T21:59:59;9.70;99.90
4647;DHT22;2336;47.822;7.564;2022-12-24T22:02:46;9.70;99.90
4647;DHT22;2336;47.822;7.564;2022-12-24T22:05:13;9.70;99.90
4647;DHT22;2336;47.822;7.564;2022-12-24T22:07:40;9.70;99.90
4647;DHT22;2336;47.822;7.564;2022-12-24T22:10:25;9.70;99.90
4647;DHT22;2336;47.822;7.564;2022-12-24T22:13:10;9.70;99.90
4647;DHT22;2336;47.822;7.564;2022-12-24T22:15:42;9.70;99.90
4647;DHT22;2336;47.822;7.564;2022-12-24T22:18:10;9.70;99.90
4647;DHT22;2336;47.822;7.564;2022-12-24T22:20:37;9.60;99.90
4647;DHT22;2336;47.822;7.564;2022-12-24T22:23:05;9.60;99.90
4647;DHT22;2336;47.822;7.564;2022-12-24T22:25:33;9.60;99.90
4647;DHT22;2336;47.822;7.564;2022-12-24T22:28:00;9.60;99.90
4647;DHT22;2336;47.822;7.564;2022-12-24T22:30:28;9.60;99.90
4647;DHT22;2336;47.822;7.564;2022-12-24T22:32:54;9.60;99.90
4647;DHT22;2336;47.822;7.564;2022-12-24T22:35:22;9.60;99.90
4647;DHT22;2336;47.822;7.564;2022-12-24T22:37:49;9.60;99.90
4647;DHT22;2336;47.822;7.564;2022-12-24T22:40:16;9.60;99.90
4647;DHT22;2336;47.822;7.564;2022-12-24T22:42:44;9.70;99.90
4647;DHT22;2336;47.822;7.564;2022-12-24T22:45:11;9.70;99.90
4647;DHT22;2336;47.822;7.564;2022-12-24T22:47:38;9.60;99.90
4647;DHT22;2336;47.822;7.564;2022-12-24T22:50:06;9.60;99.90
4647;DHT22;2336;47.822;7.564;2022-12-24T22:52:34;9.50;99.90
4647;DHT22;2336;47.822;7.564;2022-12-24T22:55:01;9.50;99.90
4647;DHT22;2336;47.822;7.564;2022-12-24T22:57:29;9.50;99.90
4647;DHT22;2336;47.822;7.564;2022-12-24T22:59:57;9.50;99.90
4647;DHT22;2336;47.822;7.564;2022-12-24T23:02:24;9.40;99.90
4647;DHT22;2336;47.822;7.564;2022-12-24T23:04:51;9.40;99.90
4647;DHT22;2336;47.822;7.564;2022-12-24T23:07:18;9.40;99.90
4647;DHT22;2336;47.822;7.564;2022-12-24T23:09:45;9.40;99.90
4647;DHT22;2336;47.822;7.564;2022-12-24T23:12:12;9.40;99.90
4647;DHT22;2336;47.822;7.564;2022-12-24T23:15:00;9.40;99.90
4647;DHT22;2336;47.822;7.564;2022-12-24T23:17:26;9.30;99.90
4647;DHT22;2336;47.822;7.564;2022-12-24T23:19:52;9.30;99.90
4647;DHT22;2336;47.822;7.564;2022-12-24T23:22:19;9.30;99.90
4647;DHT22;2336;47.822;7.564;2022-12-24T23:24:46;9.20;99.90
4647;DHT22;2336;47.822;7.564;2022-12-24T23:27:13;9.20;99.90
4647;DHT22;2336;47.822;7.564;2022-12-24T23:29:40;9.10;99.90
4647;DHT22;2336;47.822;7.564;2022-12-24T23:32:08;9.20;99.90
4647;DHT22;2336;47.822;7.564;2022-12-24T23:34:35;9.10;99.90
4647;DHT22;2336;47.822;7.564;2022-12-24T23:37:02;9.10;99.90
4647;DHT22;2336;47.822;7.564;2022-12-24T23:39:28;9.10;99.90
4647;DHT22;2336;47.822;7.564;2022-12-24T23:41:55;9.10;99.90
4647;DHT22;2336;47.822;7.564;2022-12-24T23:44:22;9.10;99.90
4647;DHT22;2336;47.822;7.564;2022-12-24T23:46:49;9.10;99.90
4647;DHT22;2336;47.822;7.564;2022-12-24T23:49:17;9.10;99.90
4647;DHT22;2336;47.822;7.564;2022-12-24T23:51:44;9.00;99.90
4647;DHT22;2336;47.822;7.564;2022-12-24T23:54:10;9.00;99.90
4647;DHT22;2336;47.822;7.564;2022-12-24T23:56:37;9.00;99.90
4647;DHT22;2336;47.822;7.564;2022-12-24T23:59:04;8.90;99.90
